AirNav   Airventure
 
 1686 users online  

NA21 Thompson Private Airport
Wyndmere, North Dakota, USA


FAA INFORMATION EFFECTIVE 20 JULY 2017

Location

FAA Identifier: NA21
Lat/Long: 46-13-41.8580N / 097-14-10.3230W
46-13.697633N / 097-14.172050W
46.2282939 / -97.2362008
(estimated)
Elevation: 1075 ft. / 328 m (estimated)
Variation: 06E (1985)
From city: 6 miles SW of WYNDMERE, ND
Time zone: UTC -5 (UTC -6 during Standard Time)
Zip code: 58081

Airport Operations

Airport use: Private use. Permission required prior to landing
Control tower: no
ARTCC: MINNEAPOLIS CENTER
FSS: GRAND FORKS FLIGHT SERVICE STATION
Attendance: UNATNDD
Wind indicator: yes
Segmented circle: no

Airport Communications

WX AWOS-3 at GWR (17 nm W): 118.325 (701-678-6801)

Nearby radio navigation aids

VOR radial/distance  VOR name  Freq  Var
FARr198/35.3FARGO VOR/DME116.2009E

Airport Services

Runway Information

Runway 18/36

Dimensions: 2600 x 60 ft. / 792 x 18 m
Surface: asphalt/turf
1750 FT PAVED; REMAINDER TURF.
RUNWAY 18  RUNWAY 36
Traffic pattern: leftleft
Obstructions: noneroad, 30 ft. from runway

Airport Ownership and Management from official FAA records

Ownership: Privately-owned
Owner: DAN THOMPSON
8198 151 RAVSE
WYNDMERE, ND 58081
Phone 701-439-2959
Manager: DAN THOMPSON
8198 151 RAVSE
WYNDMERE, ND 58081
Phone 701-439-2959

Airport Operational Statistics

Aircraft based on the field: 2
Single engine airplanes: 2
    

Instrument Procedures

There are no published instrument procedures at NA21.

Some nearby airports with instrument procedures:

KGWR - Gwinner Airport-Roger Melroe Field (17 nm W)
6L3 - Lisbon Municipal Airport (24 nm NW)
KBWP - Harry Stern Airport (26 nm E)
K74 - Robert Odegaard Field Airport (27 nm N)
KBTN - Britton Municipal Airport (33 nm SW)
 
Loc | Ops | Rwys | IFR | FBO | Links
Com | Nav | Svcs | Stats | Notes


 
Area around NA21 (Thompson Private Airport)
 
Road maps at: MapQuest Bing Google
 
Aerial photo
No photo
 
Sectional chart

 
Airport distance calculator
Flying to Thompson Private Airport? Find the distance to fly.

From to NA21

Sunrise and sunset
Times for 24-Jul-2017
 Local
(UTC-5)
 Zulu
(UTC)
Morning civil twilight05:2610:26
Sunrise06:0211:02
Sunset21:0802:08
Evening civil twilight21:4402:44

Current date and time
Zulu (UTC)  24-Jul-2017 20:05:40
Local (UTC-5)  24-Jul-2017 15:05:40
 
METAR
KGWR 
17nm W 
241955Z AUTO 15007KT 10SM CLR 25/18 A2992 RMK A01
KBWP 
26nm E 
241930Z AUTO 16010KT 10SM SCT035 24/16 A2996 RMK AO1
KBTN 
33nm SW 
SuperAWOS
241935Z AUTO 00000KT 10SM 26/17 A2993
TAF
KFAR 
46nm N 
241720Z 2418/2518 16014G22KT P6SM SCT040 BKN150 FM250400 15010KT P6SM OVC120 FM251500 20007KT P6SM SCT035 FM251700 25005KT P6SM BKN090
NOTAMs
Click for the latest NOTAMs
NOTAMs are issued by the DoD/FAA and will open in a separate window not controlled by AirNav.

 

 
 

Would you like to see your business listed on this page?

 If your business provides an interesting product or service to pilots, flight crews, aircraft, or users of the Thompson Private Airport, you should consider listing it here.  To start the listing process, click on the button below
 
Add a business
 

Other Pages about Thompson Private Airport

Update a link
 
Copyright © AirNav, LLC. All rights reserved. Privacy Policy  Contact